FW4685 Weather Reports


Display with metric or nautical units.
time (UTC)temp
F
wind
direction
speed
MPH
gust
MPH
rain 1hr
in
rain 24hr
in
rain mn
in
humidity
%
barometer
mb
20240623064526 61 275 1.0 5.0 0.00 0.00 0.00 77 1020.2
20240623063515 60 66 0.0 2.0 0.00 0.00 0.00 79 1020.3
20240623062519 60 94 0.0 0.0 0.00 0.00 0.00 79 1020.2
20240623061519 60 155 0.0 0.0 0.00 0.00 0.00 80 1020.2
20240623060523 60 172 0.0 0.0 0.00 0.00 0.00 78 1020.3
20240623055604 58 158 0.0 0.0 0.00 0.00 0.00 75 1020.0
20240623054527 56 163 0.0 0.0 0.00 0.00 0.00 77 1020.0
20240623053530 53 158 0.0 0.0 0.00 0.00 0.00 87 1020.1
20240623052519 52 158 0.0 0.0 0.00 0.00 0.00 95 1019.9
20240623051518 51 166 0.0 0.0 0.00 0.00 0.00 95 1019.9
20240623050519 50 164 0.0 0.0 0.00 0.00 0.00 95 1020.0
20240623045518 50 162 0.0 0.0 0.00 0.00 0.00 95 1019.8
20240623044522 49 163 0.0 0.0 0.00 0.00 0.00 95 1019.9
20240623043605 49 166 0.0 0.0 0.00 0.00 0.00 95 1019.9
20240623042528 49 163 0.0 0.0 0.00 0.00 0.00 95 1019.7
20240623041556 49 164 0.0 0.0 0.00 0.00 0.00 94 1019.6
20240623040519 49 164 0.0 0.0 0.00 0.00 0.00 94 1019.6
20240623035518 49 166 0.0 0.0 0.00 0.00 0.00 94 1019.3
20240623034522 50 163 0.0 0.0 0.00 0.00 0.00 94 1019.2
20240623033522 50 164 0.0 0.0 0.00 0.00 0.00 94 1019.1
20240623032523 50 164 0.0 0.0 0.00 0.00 0.00 93 1018.9
20240623031608 50 162 0.0 0.0 0.00 0.00 0.00 93 1019.0
20240623030530 50 162 0.0 0.0 0.00 0.00 0.00 93 1018.9
20240623025518 50 165 0.0 0.0 0.00 0.00 0.00 92 1018.9
20240623024600 51 164 0.0 0.0 0.00 0.00 0.00 92 1018.9
20240623023522 51 161 0.0 0.0 0.00 0.00 0.00 91 1018.9
20240623022524 51 163 0.0 0.0 0.00 0.00 0.00 90 1018.8
20240623021528 52 164 0.0 0.0 0.00 0.00 0.00 90 1018.8
20240623020530 52 149 0.0 0.0 0.00 0.00 0.00 89 1018.8
20240623015558 53 152 0.0 0.0 0.00 0.00 0.00 88 1018.7
20240623014559 53 153 0.0 0.0 0.00 0.00 0.00 88 1018.8
20240623013522 53 143 0.0 0.0 0.00 0.00 0.00 87 1018.8
20240623012525 53 141 0.0 0.0 0.00 0.00 0.00 87 1018.8
20240623011527 53 142 0.0 0.0 0.00 0.00 0.00 87 1018.7
20240623010527 53 138 0.0 0.0 0.00 0.00 0.00 86 1018.6
20240623005516 53 156 0.0 0.0 0.00 0.00 0.00 86 1018.4
20240623004538 54 146 0.0 0.0 0.00 0.00 0.00 85 1018.6
20240623003522 54 145 0.0 0.0 0.00 0.00 0.00 85 1018.6
20240623002525 54 147 0.0 0.0 0.00 0.00 0.00 84 1018.6
20240623001527 55 143 0.0 0.0 0.00 0.00 0.00 83 1018.7
20240623000530 55 140 0.0 0.0 0.00 0.00 0.00 82 1018.7
20240622235518 55 143 0.0 0.0 0.00 0.00 0.00 81 1018.5
20240622234600 55 289 0.0 2.0 0.00 0.00 0.00 81 1018.5
20240622233522 56 142 0.0 2.0 0.00 0.00 0.00 81 1018.5
20240622232526 56 138 0.0 2.0 0.00 0.00 0.00 80 1018.3
20240622231528 56 147 0.0 0.0 0.00 0.00 0.00 79 1018.3
20240622230531 56 141 0.0 0.0 0.00 0.00 0.00 78 1018.4
20240622225518 57 160 0.0 0.0 0.00 0.00 0.00 77 1018.1
20240622224519 57 143 0.0 2.0 0.00 0.00 0.00 77 1018.1
20240622223518 57 77 0.0 0.0 0.00 0.00 0.00 77 1018.0
20240622222522 57 114 0.0 0.0 0.00 0.00 0.00 77 1017.8
20240622221522 58 138 0.0 0.0 0.00 0.00 0.00 76 1017.7
20240622220526 59 147 0.0 0.0 0.00 0.00 0.00 74 1017.7
20240622215527 59 143 0.0 0.0 0.00 0.00 0.00 73 1017.7
20240622214530 60 143 0.0 0.0 0.00 0.00 0.00 71 1017.6
20240622213531 60 305 0.0 2.0 0.00 0.00 0.00 70 1017.5
20240622212518 61 145 0.0 0.0 0.00 0.00 0.00 69 1017.5
20240622211521 61 264 0.0 5.0 0.00 0.00 0.00 69 1017.6
20240622210603 61 235 0.0 5.0 0.00 0.00 0.00 67 1017.5
20240622205522 62 263 0.0 5.0 0.00 0.00 0.00 68 1017.5
20240622204523 62 219 0.0 2.0 0.00 0.00 0.00 69 1017.3
20240622203525 63 148 0.0 0.0 0.00 0.00 0.00 67 1017.2
20240622202526 64 140 0.0 0.0 0.00 0.00 0.00 65 1017.0
20240622201526 65 276 0.0 2.0 0.00 0.00 0.00 63 1017.0
20240622200530 66 242 0.0 2.0 0.00 0.00 0.00 62 1016.8
20240622195530 67 288 0.0 5.0 0.00 0.00 0.00 60 1016.5
20240622194517 68 296 1.0 5.0 0.00 0.00 0.00 59 1016.4
20240622193518 69 248 1.0 5.0 0.00 0.00 0.00 57 1016.2
20240622192621 70 264 1.0 7.0 0.00 0.00 0.00 56 1016.1
20240622191522 70 278 1.0 7.0 0.00 0.00 0.00 53 1016.1
20240622190523 72 26 0.0 5.0 0.00 0.00 0.00 53 1016.0
20240622185606 73 294 1.0 5.0 0.00 0.00 0.00 51 1015.9
20240622184527 75 265 1.0 7.0 0.00 0.00 0.00 50 1015.8
20240622183531 75 281 1.0 10.0 0.00 0.00 0.00 47 1015.7
20240622182557 76 263 1.0 7.0 0.00 0.00 0.00 45 1015.7
20240622181518 76 303 0.0 7.0 0.00 0.00 0.00 46 1015.7
20240622180521 76 58 1.0 5.0 0.00 0.00 0.00 45 1015.6
20240622175522 75 239 2.0 7.0 0.00 0.00 0.00 45 1015.6
20240622174522 75 270 1.0 10.0 0.00 0.00 0.00 45 1015.4
20240622173525 74 204 1.0 10.0 0.00 0.00 0.00 46 1015.2
20240622172528 74 299 2.0 7.0 0.00 0.00 0.00 46 1015.1
20240622171611 73 286 2.0 10.0 0.00 0.00 0.00 46 1015.0
20240622170517 74 270 2.0 7.0 0.00 0.00 0.00 48 1014.9
20240622165521 76 242 1.0 5.0 0.00 0.00 0.00 48 1014.8
20240622164523 77 293 2.0 7.0 0.00 0.00 0.00 47 1014.6
20240622163607 78 293 1.0 7.0 0.00 0.00 0.00 42 1014.7
20240622162526 77 167 1.0 5.0 0.00 0.00 0.00 42 1014.5
20240622161526 77 241 1.0 7.0 0.00 0.00 0.00 41 1014.5
20240622160527 77 241 1.0 7.0 0.00 0.00 0.00 43 1014.5
20240622155531 77 264 1.0 5.0 0.00 0.00 0.00 43 1014.5
20240622154516 77 278 3.0 10.0 0.00 0.00 0.00 42 1014.5
20240622153517 76 142 1.0 7.0 0.00 0.00 0.00 42 1014.5
20240622152521 77 304 1.0 5.0 0.00 0.00 0.00 45 1014.4
20240622151525 78 285 1.0 5.0 0.00 0.00 0.00 44 1014.5
20240622150525 78 260 2.0 5.0 0.00 0.00 0.00 41 1014.6
20240622145527 77 261 0.0 5.0 0.00 0.00 0.00 43 1014.5
20240622144516 76 283 1.0 10.0 0.00 0.00 0.00 43 1014.4
20240622143557 75 254 1.0 5.0 0.00 0.00 0.00 46 1014.4
20240622142519 74 291 0.0 5.0 0.00 0.00 0.00 49 1014.5
20240622141521 74 45 0.0 5.0 0.00 0.00 0.00 52 1014.5
20240622140523 73 297 0.0 2.0 0.00 0.00 0.00 54 1014.5
20240622135525 72 143 1.0 5.0 0.00 0.00 0.00 53 1014.5
20240622134527 71 277 1.0 7.0 0.00 0.00 0.00 56 1014.5
20240622133530 70 305 0.0 2.0 0.00 0.00 0.00 56 1014.6
20240622132517 70 306 1.0 7.0 0.00 0.00 0.00 58 1014.6
20240622131539 70 288 1.0 7.0 0.00 0.00 0.00 60 1014.5
20240622130521 70 208 0.0 5.0 0.00 0.00 0.00 62 1014.6
20240622125525 69 272 1.0 7.0 0.00 0.00 0.00 62 1014.5
20240622124525 69 316 1.0 5.0 0.00 0.00 0.00 62 1014.4
20240622123527 70 271 1.0 7.0 0.00 0.00 0.00 63 1014.4
20240622122515 70 65 0.0 5.0 0.00 0.00 0.00 64 1014.4
20240622121517 70 270 1.0 10.0 0.00 0.00 0.00 63 1014.3
20240622120519 70 301 1.0 5.0 0.00 0.00 0.00 63 1014.2
20240622115521 69 283 1.0 5.0 0.00 0.00 0.00 64 1014.2
20240622114603 69 283 2.0 10.0 0.00 0.00 0.00 63 1014.1
20240622113525 68 256 2.0 7.0 0.00 0.00 0.00 62 1014.1
20240622112527 67 286 2.0 10.0 0.00 0.00 0.00 68 1013.9
20240622111530 67 337 1.0 7.0 0.00 0.00 0.00 72 1014.0
20240622110535 67 261 1.0 10.0 0.00 0.00 0.00 72 1013.9
20240622105530 68 267 1.0 7.0 0.00 0.00 0.00 71 1013.7
20240622104517 67 323 1.0 5.0 0.00 0.00 0.00 70 1013.7
20240622103517 66 281 1.0 5.0 0.00 0.00 0.00 69 1013.4
20240622102517 65 302 1.0 10.0 0.00 0.00 0.00 71 1013.4
20240622101518 64 312 0.0 5.0 0.00 0.00 0.00 75 1013.4
20240622100519 64 283 1.0 5.0 0.00 0.00 0.00 76 1013.4
20240622095520 65 288 3.0 10.0 0.00 0.00 0.00 78 1013.4
20240622094523 67 298 4.0 12.0 0.00 0.00 0.00 76 1013.3
20240622093525 67 290 2.0 15.0 0.00 0.00 0.00 72 1013.1
20240622092527 67 309 2.0 7.0 0.00 0.00 0.00 70 1012.9
20240622091531 66 301 0.0 5.0 0.00 0.00 0.00 71 1012.8
20240622090517 66 146 0.0 2.0 0.00 0.00 0.00 75 1012.8
20240622085521 66 281 0.0 2.0 0.00 0.00 0.00 76 1012.8
20240622084525 65 173 0.0 0.0 0.00 0.00 0.00 74 1012.7
20240622083527 65 152 0.0 0.0 0.00 0.00 0.00 75 1012.6
20240622082529 64 237 0.0 2.0 0.00 0.00 0.00 77 1012.6
20240622081517 64 284 0.0 2.0 0.00 0.00 0.00 79 1012.6
20240622080517 64 329 0.0 2.0 0.00 0.00 0.00 80 1012.6
20240622075517 64 276 0.0 7.0 0.00 0.00 0.00 81 1012.6
20240622074522 64 229 0.0 2.0 0.00 0.00 0.00 81 1012.4
20240622073524 63 148 0.0 2.0 0.00 0.00 0.00 81 1012.4
20240622072524 62 155 0.0 2.0 0.00 0.00 0.00 82 1012.4
20240622071527 62 150 0.0 0.0 0.00 0.00 0.00 84 1012.3
20240622070529 62 217 0.0 2.0 0.00 0.00 0.00 85 1012.4
20240622065517 61 176 0.0 5.0 0.00 0.00 0.00 85 1012.2